createdAt,value
2019-04-23T00:03:34.202Z,56.3
2019-04-23T00:09:25.877Z,58.6
2019-04-23T00:15:16.629Z,59.5
2019-04-23T00:21:13.026Z,61.7
2019-04-23T00:27:35.070Z,63.9
2019-04-23T00:39:33.700Z,69.2
2019-04-23T00:45:24.291Z,71
2019-04-23T00:51:15.605Z,72.9
2019-04-23T00:57:23.875Z,74.6
2019-04-23T01:03:11.391Z,75
2019-04-23T01:08:54.950Z,77.7
2019-04-23T01:14:32.355Z,78.5
2019-04-23T01:20:20.397Z,80.2
2019-04-23T01:25:47.280Z,82.5
2019-04-23T01:31:47.367Z,82.1
2019-04-23T01:37:40.920Z,82.4
2019-04-23T01:43:29.936Z,81.4
2019-04-23T01:56:46.990Z,82.6
2019-04-23T02:03:00.645Z,83.7
2019-04-23T02:14:54.521Z,85.1
2019-04-23T02:20:52.447Z,84.5
2019-04-23T02:26:48.313Z,84.8
2019-04-23T02:33:09.932Z,85.1
2019-04-23T02:39:39.160Z,84.6
2019-04-23T02:45:56.146Z,85.9
2019-04-23T02:52:07.858Z,85.9
2019-04-23T02:58:18.306Z,86.3
2019-04-23T03:04:39.743Z,86.8
2019-04-23T03:10:50.761Z,87.1
2019-04-23T03:53:24.058Z,86.8
2019-04-23T04:00:02.105Z,86.6
2019-04-23T04:06:33.255Z,86
2019-04-23T04:18:43.910Z,87.5
2019-04-23T04:24:39.375Z,88
2019-04-23T04:31:30.547Z,88.2
2019-04-23T05:01:58.280Z,89.8
2019-04-23T05:08:12.720Z,88.6
2019-04-23T05:14:23.236Z,88.3
2019-04-23T05:20:19.671Z,88.3
2019-04-23T05:26:15.250Z,89.6
2019-04-23T05:32:04.012Z,89.9
2019-04-23T05:38:28.910Z,89.4
2019-04-23T05:44:29.223Z,88.4
2019-04-23T05:50:40.580Z,87.8
2019-04-23T05:56:43.564Z,87.8
2019-04-23T06:03:04.315Z,88.4
2019-04-23T06:09:18.705Z,88.1
2019-04-23T06:15:19.993Z,87.1
2019-04-23T06:27:17.962Z,87.3
2019-04-23T06:33:13.092Z,86.1
2019-04-23T06:39:06.243Z,84.9
2019-04-23T06:45:04.511Z,86.1
2019-04-23T06:51:04.049Z,84.2
2019-04-23T06:57:16.121Z,85.5
2019-04-23T07:09:17.069Z,83.9
2019-04-23T07:15:44.591Z,83.7
2019-04-23T07:21:41.357Z,81.8
2019-04-23T07:27:33.097Z,79.9
2019-04-23T07:33:34.519Z,83.3
2019-04-23T07:40:09.197Z,83.5
2019-04-23T07:46:23.540Z,78.9
2019-04-23T07:52:33.051Z,77.5
2019-04-23T08:04:42.291Z,77.5
2019-04-23T08:11:00.294Z,74.9
2019-04-23T08:17:03.889Z,77
2019-04-23T08:23:24.045Z,79
2019-04-23T08:29:30.135Z,79.3
2019-04-23T08:35:33.700Z,76.9
2019-04-23T08:41:51.340Z,77
2019-04-23T08:48:07.314Z,79.1
2019-04-23T08:54:02.747Z,70.3
2019-04-23T09:00:02.320Z,71.6
2019-04-23T09:12:15.955Z,74.4
2019-04-23T09:18:20.825Z,76.1
2019-04-23T09:24:08.978Z,77.1
2019-04-23T09:30:12.359Z,77.1
2019-04-23T09:36:27.258Z,75
2019-04-23T09:42:23.831Z,75.5
2019-04-23T09:48:26.255Z,73.6
2019-04-23T09:54:39.608Z,68.2
2019-04-23T10:00:44.707Z,73.6
2019-04-23T10:06:05.893Z,68.8
2019-04-23T10:11:07.900Z,70.3
2019-04-23T10:16:15.725Z,67
2019-04-23T10:21:17.314Z,68.1
2019-04-23T10:26:16.922Z,63.2
2019-04-23T10:31:18.595Z,63.9
2019-04-23T10:36:23.851Z,67.2
2019-04-23T10:41:25.993Z,67.5
2019-04-23T10:47:21.918Z,65.7
2019-04-23T10:59:26.815Z,64.4
2019-04-23T11:05:35.268Z,59.7
2019-04-23T11:11:44.423Z,58.3
2019-04-23T11:17:47.464Z,60.4
2019-04-23T11:23:33.946Z,60.7
2019-04-23T11:30:07.932Z,65.8
2019-04-23T11:48:31.011Z,65.6
2019-04-23T11:54:42.952Z,62.9
2019-04-23T12:01:08.127Z,62.8
2019-04-23T12:07:07.405Z,66.6
2019-04-23T12:13:35.184Z,63.3
2019-04-23T12:19:59.456Z,62.3
2019-04-23T12:26:19.058Z,58.3
2019-04-23T12:32:46.310Z,59.1
2019-04-23T12:38:54.528Z,61.9
2019-04-23T12:45:12.857Z,57
2019-04-23T12:51:16.725Z,61.2
2019-04-23T12:57:33.924Z,62.5
2019-04-23T13:09:41.678Z,61
2019-04-23T13:15:34.117Z,58.9
2019-04-23T13:27:53.034Z,65
2019-04-23T13:34:03.112Z,65.4
2019-04-23T13:40:16.321Z,67.4
2019-04-23T13:46:48.936Z,66.4
2019-04-23T13:53:34.244Z,67.6
2019-04-23T13:59:38.689Z,65.9
2019-04-23T14:05:49.148Z,69.9
2019-04-23T14:11:56.653Z,75.8
2019-04-23T14:18:10.274Z,77.4
2019-04-23T14:24:36.501Z,71.6
2019-04-23T14:30:53.227Z,71.6
2019-04-23T14:43:28.880Z,71.6
2019-04-23T14:49:42.744Z,70
2019-04-23T14:55:56.028Z,67.6
2019-04-23T15:02:04.135Z,67.9
2019-04-23T15:08:03.570Z,68.8
2019-04-23T15:13:59.769Z,68.7
2019-04-23T15:20:07.939Z,68.5
2019-04-23T15:26:47.413Z,71.8
2019-04-23T15:33:09.625Z,69.2
2019-04-23T15:45:07.597Z,71.2
2019-04-23T15:51:19.689Z,70.7
2019-04-23T15:57:44.777Z,71.6
2019-04-23T16:02:46.499Z,68.8
2019-04-23T16:08:44.962Z,69.6
2019-04-23T16:14:38.620Z,72.1
2019-04-23T16:20:53.223Z,71.6
2019-04-23T16:27:06.759Z,69.9
2019-04-23T16:33:10.942Z,71.4
2019-04-23T16:39:27.675Z,70.1
2019-04-23T16:45:44.867Z,69.5
2019-04-23T16:51:36.040Z,69.4
2019-04-23T16:58:01.193Z,70.3
2019-04-23T17:04:09.631Z,68.5
2019-04-23T17:10:17.336Z,70.4
2019-04-23T17:16:33.116Z,68.7
2019-04-23T17:22:31.123Z,68.2
2019-04-23T17:28:42.354Z,68
2019-04-23T17:34:54.244Z,68.5
2019-04-23T17:40:49.662Z,69.3
2019-04-23T17:46:56.003Z,67.9
2019-04-23T17:53:02.586Z,67.4
2019-04-23T17:59:11.562Z,67.9
2019-04-23T18:05:23.364Z,68.4
2019-04-23T18:11:33.644Z,70.2
2019-04-23T18:17:39.106Z,68.9
2019-04-23T18:23:39.401Z,69
2019-04-23T18:35:43.585Z,69.8
2019-04-23T18:41:59.333Z,69.8
2019-04-23T18:47:54.219Z,69.8
2019-04-23T18:53:55.842Z,68.6
2019-04-23T19:00:13.199Z,68.1
2019-04-23T19:06:11.861Z,67.3
2019-04-23T19:12:35.871Z,67.5
2019-04-23T19:18:33.157Z,67.5
2019-04-23T19:24:31.237Z,66.6
2019-04-23T19:36:24.706Z,66.8
2019-04-23T19:42:36.242Z,65
2019-04-23T19:54:51.703Z,67.2
2019-04-23T20:13:04.697Z,67.9
2019-04-23T20:19:14.593Z,65.6
2019-04-23T20:27:16.408Z,68.6
2019-04-23T20:39:19.523Z,65.9
2019-04-23T20:45:26.851Z,65.9
2019-04-23T20:51:32.892Z,66.7
2019-04-23T21:03:59.806Z,68
2019-04-23T21:22:26.969Z,71.9
2019-04-23T21:28:34.584Z,71
2019-04-23T21:34:43.539Z,72.7
2019-04-23T21:47:38.109Z,66.9
2019-04-23T21:53:32.685Z,68.1
2019-04-23T21:59:50.042Z,66.8
2019-04-23T22:05:49.072Z,69.9
2019-04-23T22:12:13.378Z,68.3
2019-04-23T22:18:12.024Z,62.4
2019-04-23T22:24:23.683Z,72.8
2019-04-23T22:30:30.174Z,74.3
2019-04-23T22:36:38.687Z,70.6
2019-04-23T22:43:08.460Z,70.2
2019-04-23T22:55:20.930Z,69
2019-04-23T23:07:46.799Z,68.4
2019-04-23T23:14:07.661Z,68
2019-04-23T23:20:34.635Z,67.7
2019-04-23T23:26:40.209Z,66.1
2019-04-23T23:32:55.431Z,65.4
2019-04-23T23:39:21.934Z,64.2
2019-04-23T23:45:18.193Z,64.4
2019-04-23T23:57:28.293Z,62.6
